Iris Victoria — V7TS8 — position and weather

sailwx.info

Track history (hours):
 
Tides and Currents Weather Stations Pressure Air Temp Water Temp Dewpoint Dewpoint Depression Visibility Wind Speed Wind Dir Waves Ship Positions

Iris Victoria

Last reported at 2015-May-27 16:33 UTC. Time now 2015-May-28 16:16 UTC.
Position N 59°32' E 022°44'.

Length 228 m; draft 13 m.

Type: Ship (hazmat cat B). MMSI: 538003876.

Date/timePositionNaut miles runAvg speedWind from/ knotsBaromVisibWave heightAir tempDewpointWater temp
2015-May-27 16:33N 59°32' E 022°44'1513.5
2015-May-27 15:28N 59°36' E 023°12'1213.4
2015-May-27 14:33N 59°40' E 023°35'1413.4
2015-May-27 13:31N 59°44' E 024°02'1313.4
2015-May-27 12:31N 59°47' E 024°27'1513.9
2015-May-27 11:26N 59°50' E 024°57'1614.9
2015-May-27 10:23N 59°53' E 025°27'1113.6
2015-May-27 09:33N 59°56' E 025°49'1413.5
2015-May-27 08:33N 59°59' E 026°16'1313.2
2015-May-27 07:33N 60°01' E 026°42'1312.8
2015-May-27 06:33N 60°01' E 027°07'1313.2
2015-May-27 05:33N 60°07' E 027°30'  
2015-May-22 18:12N 60°02' E 027°18'1014.5
2015-May-22 17:32N 59°58' E 027°00'1414.8
2015-May-22 16:33N 59°58' E 026°32'1515.0
2015-May-22 15:33N 59°54' E 026°03'4515.1
2015-May-22 12:33N 59°44' E 024°35'1515.0
2015-May-22 11:32N 59°40' E 024°06'1515.2
2015-May-22 10:33N 59°36' E 023°37'1815.2
2015-May-22 09:20N 59°31' E 023°03'1615.2
2015-May-22 08:15N 59°25' E 022°32'3115.4
2015-May-22 06:14N 59°05' E 021°46'1015.2
2015-May-22 05:33N 58°56' E 021°35'18615.2
2015-May-21 17:22N 56°16' E 018°39'1215.1
2015-May-21 16:33N 56°09' E 018°21'1715.3
2015-May-21 15:28N 56°00' E 017°56'7515.2
2015-May-21 10:33N 55°41' E 015°47'1515.2
2015-May-21 09:33N 55°36' E 015°22'1515.3
2015-May-21 08:33N 55°30' E 014°57'1515.0
2015-May-21 07:33N 55°21' E 014°36'1514.6
2015-May-21 06:33N 55°10' E 014°19'1714.8
2015-May-21 05:26N 55°10' E 013°50'1314.9
2015-May-21 04:33N 55°10' E 013°27'1515.5
2015-May-21 03:33N 55°13' E 012°60'1413.9
2015-May-21 02:33N 55°18' E 012°37'1313.3
2015-May-21 01:33N 55°31' E 012°42'1010.1
2015-May-21 00:33N 55°41' E 012°41'1211.6
2015-May-20 23:33N 55°53' E 012°39'1111.2
2015-May-20 22:33N 56°04' E 012°37'9 8.9
2015-May-20 21:33N 56°09' E 012°24'1111.5
2015-May-20 20:33N 56°16' E 012°07'8 8.0
2015-May-20 19:32N 56°22' E 011°60'1211.8
2015-May-20 18:33N 56°34' E 011°56'1211.9
2015-May-20 17:33N 56°46' E 011°51'1313.4
2015-May-20 16:33N 56°58' E 011°43'1413.8
2015-May-20 15:33N 57°11' E 011°34'1514.8
2015-May-20 14:33N 57°25' E 011°25'1414.1
2015-May-20 13:33N 57°35' E 011°07'1313.3
2015-May-20 12:33N 57°45' E 010°49'1313.0
2015-May-20 11:33N 57°54' E 010°32'1312.7
2015-May-20 10:31N 57°54' E 010°07'28211.2
2015-May-19 09:17N 54°16' E 004°45'1212.7
2015-May-19 08:22N 54°05' E 004°41'15112.5
2015-May-18 20:20N 51°55' E 002°33'910.2
2015-May-18 19:28N 51°47' E 002°38'1011.0
2015-May-18 18:33N 51°39' E 002°28'1212.0
2015-May-18 17:33N 51°30' E 002°15'1211.8
2015-May-18 16:34N 51°19' E 002°08'1211.5
2015-May-18 15:34N 51°11' E 001°56'1514.5
2015-May-18 14:33N 51°02' E 001°37'2115.6
2015-May-18 13:15N 50°44' E 001°22'1815.1
2015-May-18 12:04N 50°32' E 001°01'1214.5
2015-May-18 11:13N 50°27' E 000°43'1115.1
2015-May-18 10:29N 50°24' E 000°27'6917.0
2015-May-18 06:26N 50°06' W 001°17'1617.1
2015-May-18 05:30N 50°01' W 001°41'1715.9
2015-May-18 04:27N 49°57' W 002°06'2813.7
2015-May-18 02:23N 49°50' W 002°48'1513.2
2015-May-18 01:13N 49°48' W 003°12'  
Track history (hours):
 
Tides and Currents Weather Stations Pressure Air Temp Water Temp Dewpoint Dewpoint Depression Visibility Wind Speed Wind Dir Waves Ship Positions

Iris Victoria

Last reported at 2015-May-27 16:33 UTC. Time now 2015-May-28 16:16 UTC.
Position N 59°32' E 022°44'.

Length 228 m; draft 13 m.

Type: Ship (hazmat cat B). MMSI: 538003876.

Date/timePositionNaut miles runAvg speedWind from/ knotsBaromVisibWave heightAir tempDewpointWater temp
2015-May-27 16:33N 59°32' E 022°44'1513.5
2015-May-27 15:28N 59°36' E 023°12'1213.4
2015-May-27 14:33N 59°40' E 023°35'1413.4
2015-May-27 13:31N 59°44' E 024°02'1313.4
2015-May-27 12:31N 59°47' E 024°27'1513.9
2015-May-27 11:26N 59°50' E 024°57'1614.9
2015-May-27 10:23N 59°53' E 025°27'1113.6
2015-May-27 09:33N 59°56' E 025°49'1413.5
2015-May-27 08:33N 59°59' E 026°16'1313.2
2015-May-27 07:33N 60°01' E 026°42'1312.8
2015-May-27 06:33N 60°01' E 027°07'1313.2
2015-May-27 05:33N 60°07' E 027°30'  
2015-May-22 18:12N 60°02' E 027°18'1014.5
2015-May-22 17:32N 59°58' E 027°00'1414.8
2015-May-22 16:33N 59°58' E 026°32'1515.0
2015-May-22 15:33N 59°54' E 026°03'4515.1
2015-May-22 12:33N 59°44' E 024°35'1515.0
2015-May-22 11:32N 59°40' E 024°06'1515.2
2015-May-22 10:33N 59°36' E 023°37'1815.2
2015-May-22 09:20N 59°31' E 023°03'1615.2
2015-May-22 08:15N 59°25' E 022°32'3115.4
2015-May-22 06:14N 59°05' E 021°46'1015.2
2015-May-22 05:33N 58°56' E 021°35'18615.2
2015-May-21 17:22N 56°16' E 018°39'1215.1
2015-May-21 16:33N 56°09' E 018°21'1715.3
2015-May-21 15:28N 56°00' E 017°56'7515.2
2015-May-21 10:33N 55°41' E 015°47'1515.2
2015-May-21 09:33N 55°36' E 015°22'1515.3
2015-May-21 08:33N 55°30' E 014°57'1515.0
2015-May-21 07:33N 55°21' E 014°36'1514.6
2015-May-21 06:33N 55°10' E 014°19'1714.8
2015-May-21 05:26N 55°10' E 013°50'1314.9
2015-May-21 04:33N 55°10' E 013°27'1515.5
2015-May-21 03:33N 55°13' E 012°60'1413.9
2015-May-21 02:33N 55°18' E 012°37'1313.3
2015-May-21 01:33N 55°31' E 012°42'1010.1
2015-May-21 00:33N 55°41' E 012°41'1211.6
2015-May-20 23:33N 55°53' E 012°39'1111.2
2015-May-20 22:33N 56°04' E 012°37'9 8.9
2015-May-20 21:33N 56°09' E 012°24'1111.5
2015-May-20 20:33N 56°16' E 012°07'8 8.0
2015-May-20 19:32N 56°22' E 011°60'1211.8
2015-May-20 18:33N 56°34' E 011°56'1211.9
2015-May-20 17:33N 56°46' E 011°51'1313.4
2015-May-20 16:33N 56°58' E 011°43'1413.8
2015-May-20 15:33N 57°11' E 011°34'1514.8
2015-May-20 14:33N 57°25' E 011°25'1414.1
2015-May-20 13:33N 57°35' E 011°07'1313.3
2015-May-20 12:33N 57°45' E 010°49'1313.0
2015-May-20 11:33N 57°54' E 010°32'1312.7
2015-May-20 10:31N 57°54' E 010°07'28211.2
2015-May-19 09:17N 54°16' E 004°45'1212.7
2015-May-19 08:22N 54°05' E 004°41'15112.5
2015-May-18 20:20N 51°55' E 002°33'910.2
2015-May-18 19:28N 51°47' E 002°38'1011.0
2015-May-18 18:33N 51°39' E 002°28'1212.0
2015-May-18 17:33N 51°30' E 002°15'1211.8
2015-May-18 16:34N 51°19' E 002°08'1211.5
2015-May-18 15:34N 51°11' E 001°56'1514.5
2015-May-18 14:33N 51°02' E 001°37'2115.6
2015-May-18 13:15N 50°44' E 001°22'1815.1
2015-May-18 12:04N 50°32' E 001°01'1214.5
2015-May-18 11:13N 50°27' E 000°43'1115.1
2015-May-18 10:29N 50°24' E 000°27'6917.0
2015-May-18 06:26N 50°06' W 001°17'1617.1
2015-May-18 05:30N 50°01' W 001°41'1715.9
2015-May-18 04:27N 49°57' W 002°06'2813.7
2015-May-18 02:23N 49°50' W 002°48'1513.2
2015-May-18 01:13N 49°48' W 003°12'  

Dump ship's entire track history